sensor_id;sensor_type;location;lat;lon;timestamp;P1;durP1;ratioP1;P2;durP2;ratioP2
64351;SDS011;50680;52.626;-8.668;2024-03-23T00:55:34;44.75;;;15.73;;
64351;SDS011;50680;52.626;-8.668;2024-03-23T00:58:00;37.13;;;14.02;;
64351;SDS011;50680;52.626;-8.668;2024-03-23T01:00:25;41.75;;;14.55;;
64351;SDS011;50680;52.626;-8.668;2024-03-23T01:02:51;30.25;;;13.20;;
64351;SDS011;50680;52.626;-8.668;2024-03-23T01:05:17;40.50;;;14.05;;
64351;SDS011;50680;52.626;-8.668;2024-03-23T01:07:42;32.42;;;14.38;;
64351;SDS011;50680;52.626;-8.668;2024-03-23T01:10:08;10.38;;;2.83;;
64351;SDS011;50680;52.626;-8.668;2024-03-23T01:12:34;42.38;;;14.80;;
64351;SDS011;50680;52.626;-8.668;2024-03-23T01:15:00;41.50;;;15.35;;
64351;SDS011;50680;52.626;-8.668;2024-03-23T01:17:26;39.58;;;14.57;;
64351;SDS011;50680;52.626;-8.668;2024-03-23T01:19:51;42.22;;;14.88;;
64351;SDS011;50680;52.626;-8.668;2024-03-23T01:22:18;37.15;;;13.98;;
64351;SDS011;50680;52.626;-8.668;2024-03-23T01:24:43;43.40;;;14.43;;
64351;SDS011;50680;52.626;-8.668;2024-03-23T01:27:09;42.53;;;13.70;;
64351;SDS011;50680;52.626;-8.668;2024-03-23T01:29:35;34.75;;;14.10;;
64351;SDS011;50680;52.626;-8.668;2024-03-23T01:32:01;37.20;;;12.88;;
64351;SDS011;50680;52.626;-8.668;2024-03-23T01:34:27;29.85;;;13.15;;
64351;SDS011;50680;52.626;-8.668;2024-03-23T01:36:53;34.78;;;12.85;;
64351;SDS011;50680;52.626;-8.668;2024-03-23T01:39:19;27.35;;;12.93;;
64351;SDS011;50680;52.626;-8.668;2024-03-23T01:41:44;5.90;;;2.45;;
64351;SDS011;50680;52.626;-8.668;2024-03-23T01:44:10;30.13;;;13.38;;
64351;SDS011;50680;52.626;-8.668;2024-03-23T01:46:39;31.13;;;12.77;;
64351;SDS011;50680;52.626;-8.668;2024-03-23T01:49:06;33.75;;;12.70;;
64351;SDS011;50680;52.626;-8.668;2024-03-23T01:51:33;26.73;;;12.90;;
64351;SDS011;50680;52.626;-8.668;2024-03-23T01:54:03;33.88;;;13.63;;
64351;SDS011;50680;52.626;-8.668;2024-03-23T01:56:31;27.08;;;12.85;;
64351;SDS011;50680;52.626;-8.668;2024-03-23T01:59:01;27.55;;;12.75;;
64351;SDS011;50680;52.626;-8.668;2024-03-23T02:01:30;30.25;;;12.88;;
64351;SDS011;50680;52.626;-8.668;2024-03-23T02:03:57;32.10;;;12.23;;
64351;SDS011;50680;52.626;-8.668;2024-03-23T02:06:24;32.00;;;13.18;;
64351;SDS011;50680;52.626;-8.668;2024-03-23T02:08:50;31.65;;;12.32;;
64351;SDS011;50680;52.626;-8.668;2024-03-23T02:11:17;33.38;;;12.60;;
64351;SDS011;50680;52.626;-8.668;2024-03-23T02:13:42;27.77;;;12.98;;
64351;SDS011;50680;52.626;-8.668;2024-03-23T02:16:08;26.10;;;13.07;;
64351;SDS011;50680;52.626;-8.668;2024-03-23T02:18:34;35.90;;;12.65;;
64351;SDS011;50680;52.626;-8.668;2024-03-23T02:21:00;33.17;;;13.80;;
64351;SDS011;50680;52.626;-8.668;2024-03-23T02:23:26;27.27;;;13.50;;
64351;SDS011;50680;52.626;-8.668;2024-03-23T02:25:52;29.25;;;13.90;;
64351;SDS011;50680;52.626;-8.668;2024-03-23T02:28:20;33.72;;;12.88;;
64351;SDS011;50680;52.626;-8.668;2024-03-23T02:30:50;33.03;;;13.50;;
64351;SDS011;50680;52.626;-8.668;2024-03-23T02:33:17;32.80;;;12.80;;
64351;SDS011;50680;52.626;-8.668;2024-03-23T02:35:45;35.80;;;12.07;;
64351;SDS011;50680;52.626;-8.668;2024-03-23T02:38:12;29.45;;;12.95;;
64351;SDS011;50680;52.626;-8.668;2024-03-23T02:40:38;33.55;;;12.63;;
64351;SDS011;50680;52.626;-8.668;2024-03-23T02:43:04;26.92;;;12.60;;
64351;SDS011;50680;52.626;-8.668;2024-03-23T02:45:30;26.58;;;12.00;;
64351;SDS011;50680;52.626;-8.668;2024-03-23T02:47:56;29.23;;;12.73;;
64351;SDS011;50680;52.626;-8.668;2024-03-23T02:50:22;20.65;;;11.93;;
64351;SDS011;50680;52.626;-8.668;2024-03-23T02:52:48;22.05;;;11.45;;
64351;SDS011;50680;52.626;-8.668;2024-03-23T02:55:14;15.77;;;10.20;;
64351;SDS011;50680;52.626;-8.668;2024-03-23T02:57:40;14.55;;;11.20;;
64351;SDS011;50680;52.626;-8.668;2024-03-23T03:00:07;15.95;;;11.27;;
64351;SDS011;50680;52.626;-8.668;2024-03-23T03:02:33;22.73;;;11.60;;
64351;SDS011;50680;52.626;-8.668;2024-03-23T03:04:59;22.45;;;11.77;;
64351;SDS011;50680;52.626;-8.668;2024-03-23T03:07:25;18.25;;;11.38;;
64351;SDS011;50680;52.626;-8.668;2024-03-23T03:09:51;13.45;;;10.82;;
64351;SDS011;50680;52.626;-8.668;2024-03-23T03:12:17;14.70;;;11.15;;
64351;SDS011;50680;52.626;-8.668;2024-03-23T03:14:42;14.35;;;9.75;;
64351;SDS011;50680;52.626;-8.668;2024-03-23T03:17:08;12.32;;;10.63;;
64351;SDS011;50680;52.626;-8.668;2024-03-23T03:19:34;16.60;;;10.70;;
64351;SDS011;50680;52.626;-8.668;2024-03-23T03:22:00;12.02;;;9.57;;
64351;SDS011;50680;52.626;-8.668;2024-03-23T03:24:25;11.48;;;9.80;;
64351;SDS011;50680;52.626;-8.668;2024-03-23T03:26:51;12.77;;;10.65;;
64351;SDS011;50680;52.626;-8.668;2024-03-23T03:29:17;13.82;;;10.93;;
64351;SDS011;50680;52.626;-8.668;2024-03-23T03:31:43;10.98;;;9.88;;
64351;SDS011;50680;52.626;-8.668;2024-03-23T03:34:09;17.90;;;10.63;;
64351;SDS011;50680;52.626;-8.668;2024-03-23T03:36:35;14.75;;;10.27;;
64351;SDS011;50680;52.626;-8.668;2024-03-23T03:39:01;15.20;;;10.80;;
64351;SDS011;50680;52.626;-8.668;2024-03-23T03:41:28;15.25;;;10.57;;
64351;SDS011;50680;52.626;-8.668;2024-03-23T03:43:54;17.65;;;10.80;;
64351;SDS011;50680;52.626;-8.668;2024-03-23T03:46:20;14.93;;;10.55;;
64351;SDS011;50680;52.626;-8.668;2024-03-23T03:48:46;14.25;;;10.05;;
64351;SDS011;50680;52.626;-8.668;2024-03-23T03:51:13;14.70;;;10.93;;
64351;SDS011;50680;52.626;-8.668;2024-03-23T03:53:39;22.85;;;11.18;;
64351;SDS011;50680;52.626;-8.668;2024-03-23T03:56:05;16.33;;;10.50;;
64351;SDS011;50680;52.626;-8.668;2024-03-23T03:58:32;16.88;;;10.52;;
64351;SDS011;50680;52.626;-8.668;2024-03-23T04:00:57;23.50;;;11.65;;
64351;SDS011;50680;52.626;-8.668;2024-03-23T04:03:23;25.38;;;11.27;;
64351;SDS011;50680;52.626;-8.668;2024-03-23T04:05:50;23.45;;;10.55;;
64351;SDS011;50680;52.626;-8.668;2024-03-23T04:08:17;20.08;;;10.73;;
64351;SDS011;50680;52.626;-8.668;2024-03-23T04:10:42;19.30;;;10.10;;
64351;SDS011;50680;52.626;-8.668;2024-03-23T04:13:08;21.60;;;10.77;;
64351;SDS011;50680;52.626;-8.668;2024-03-23T04:15:34;25.02;;;10.38;;
64351;SDS011;50680;52.626;-8.668;2024-03-23T04:17:59;23.65;;;11.57;;
64351;SDS011;50680;52.626;-8.668;2024-03-23T04:20:25;18.85;;;11.10;;
64351;SDS011;50680;52.626;-8.668;2024-03-23T04:22:51;22.73;;;10.82;;
64351;SDS011;50680;52.626;-8.668;2024-03-23T04:25:17;24.17;;;12.80;;
64351;SDS011;50680;52.626;-8.668;2024-03-23T04:27:44;23.95;;;11.57;;
64351;SDS011;50680;52.626;-8.668;2024-03-23T04:30:11;17.90;;;11.52;;
64351;SDS011;50680;52.626;-8.668;2024-03-23T04:32:37;21.90;;;12.07;;
64351;SDS011;50680;52.626;-8.668;2024-03-23T04:35:04;22.20;;;11.43;;
64351;SDS011;50680;52.626;-8.668;2024-03-23T04:37:36;25.27;;;11.45;;
64351;SDS011;50680;52.626;-8.668;2024-03-23T04:40:03;22.00;;;11.43;;
64351;SDS011;50680;52.626;-8.668;2024-03-23T04:42:30;18.27;;;11.48;;
64351;SDS011;50680;52.626;-8.668;2024-03-23T04:44:56;27.05;;;12.40;;
64351;SDS011;50680;52.626;-8.668;2024-03-23T04:47:22;20.15;;;11.93;;
64351;SDS011;50680;52.626;-8.668;2024-03-23T04:49:48;20.60;;;10.88;;
64351;SDS011;50680;52.626;-8.668;2024-03-23T04:52:14;19.83;;;11.73;;
64351;SDS011;50680;52.626;-8.668;2024-03-23T04:54:41;20.98;;;11.98;;
64351;SDS011;50680;52.626;-8.668;2024-03-23T04:57:07;20.95;;;11.23;;
64351;SDS011;50680;52.626;-8.668;2024-03-23T04:59:33;18.65;;;12.40;;
64351;SDS011;50680;52.626;-8.668;2024-03-23T05:01:59;20.13;;;11.63;;
64351;SDS011;50680;52.626;-8.668;2024-03-23T05:04:25;22.95;;;12.13;;
64351;SDS011;50680;52.626;-8.668;2024-03-23T05:06:51;17.50;;;11.45;;
64351;SDS011;50680;52.626;-8.668;2024-03-23T05:09:17;17.95;;;11.73;;
64351;SDS011;50680;52.626;-8.668;2024-03-23T05:11:43;23.83;;;11.65;;
64351;SDS011;50680;52.626;-8.668;2024-03-23T05:14:08;20.95;;;11.82;;
64351;SDS011;50680;52.626;-8.668;2024-03-23T05:16:34;25.05;;;11.85;;
64351;SDS011;50680;52.626;-8.668;2024-03-23T05:19:00;29.77;;;11.90;;
64351;SDS011;50680;52.626;-8.668;2024-03-23T05:21:26;21.77;;;11.50;;
64351;SDS011;50680;52.626;-8.668;2024-03-23T05:23:53;24.50;;;12.63;;
64351;SDS011;50680;52.626;-8.668;2024-03-23T05:26:21;23.35;;;11.95;;
64351;SDS011;50680;52.626;-8.668;2024-03-23T05:28:47;27.38;;;12.65;;
64351;SDS011;50680;52.626;-8.668;2024-03-23T05:31:22;28.50;;;12.57;;
64351;SDS011;50680;52.626;-8.668;2024-03-23T05:33:49;25.98;;;13.10;;
64351;SDS011;50680;52.626;-8.668;2024-03-23T05:36:15;30.20;;;11.85;;
64351;SDS011;50680;52.626;-8.668;2024-03-23T05:38:41;35.60;;;13.05;;
64351;SDS011;50680;52.626;-8.668;2024-03-23T05:41:06;26.30;;;12.75;;
64351;SDS011;50680;52.626;-8.668;2024-03-23T05:43:32;34.15;;;13.57;;
64351;SDS011;50680;52.626;-8.668;2024-03-23T05:45:58;31.52;;;13.23;;
64351;SDS011;50680;52.626;-8.668;2024-03-23T05:48:25;34.08;;;12.80;;
64351;SDS011;50680;52.626;-8.668;2024-03-23T05:50:51;30.30;;;13.55;;
64351;SDS011;50680;52.626;-8.668;2024-03-23T05:53:18;32.47;;;13.45;;
64351;SDS011;50680;52.626;-8.668;2024-03-23T05:55:46;32.08;;;12.73;;
64351;SDS011;50680;52.626;-8.668;2024-03-23T05:58:14;27.50;;;12.52;;
64351;SDS011;50680;52.626;-8.668;2024-03-23T06:00:40;30.52;;;12.18;;
64351;SDS011;50680;52.626;-8.668;2024-03-23T06:03:07;30.55;;;13.15;;
64351;SDS011;50680;52.626;-8.668;2024-03-23T06:05:34;30.67;;;13.35;;
64351;SDS011;50680;52.626;-8.668;2024-03-23T06:08:00;25.15;;;12.65;;
64351;SDS011;50680;52.626;-8.668;2024-03-23T06:10:25;26.20;;;12.55;;
64351;SDS011;50680;52.626;-8.668;2024-03-23T06:12:51;31.02;;;12.95;;
64351;SDS011;50680;52.626;-8.668;2024-03-23T06:15:21;30.48;;;13.30;;
64351;SDS011;50680;52.626;-8.668;2024-03-23T06:17:48;29.45;;;13.00;;
64351;SDS011;50680;52.626;-8.668;2024-03-23T06:20:14;27.77;;;12.20;;
64351;SDS011;50680;52.626;-8.668;2024-03-23T06:22:40;28.58;;;13.32;;
64351;SDS011;50680;52.626;-8.668;2024-03-23T06:25:05;26.33;;;12.95;;
64351;SDS011;50680;52.626;-8.668;2024-03-23T06:27:32;30.83;;;13.32;;
64351;SDS011;50680;52.626;-8.668;2024-03-23T06:30:01;23.70;;;12.40;;
64351;SDS011;50680;52.626;-8.668;2024-03-23T06:32:27;29.25;;;12.73;;
64351;SDS011;50680;52.626;-8.668;2024-03-23T06:34:54;21.23;;;12.02;;
64351;SDS011;50680;52.626;-8.668;2024-03-23T06:37:20;23.20;;;12.75;;
64351;SDS011;50680;52.626;-8.668;2024-03-23T06:39:46;22.98;;;11.80;;
64351;SDS011;50680;52.626;-8.668;2024-03-23T06:42:12;28.65;;;12.50;;
64351;SDS011;50680;52.626;-8.668;2024-03-23T06:44:38;28.25;;;13.05;;
64351;SDS011;50680;52.626;-8.668;2024-03-23T06:47:05;25.27;;;13.15;;
64351;SDS011;50680;52.626;-8.668;2024-03-23T06:49:31;28.88;;;12.15;;
64351;SDS011;50680;52.626;-8.668;2024-03-23T06:51:56;25.83;;;11.88;;
64351;SDS011;50680;52.626;-8.668;2024-03-23T06:54:24;24.73;;;11.45;;
64351;SDS011;50680;52.626;-8.668;2024-03-23T06:56:49;20.58;;;12.60;;
64351;SDS011;50680;52.626;-8.668;2024-03-23T06:59:15;30.17;;;12.63;;
64351;SDS011;50680;52.626;-8.668;2024-03-23T07:01:41;28.45;;;12.63;;
64351;SDS011;50680;52.626;-8.668;2024-03-23T07:04:07;33.03;;;12.07;;
64351;SDS011;50680;52.626;-8.668;2024-03-23T07:06:33;30.00;;;12.88;;
64351;SDS011;50680;52.626;-8.668;2024-03-23T07:08:59;37.33;;;14.32;;
64351;SDS011;50680;52.626;-8.668;2024-03-23T07:11:25;25.48;;;12.80;;
64351;SDS011;50680;52.626;-8.668;2024-03-23T07:13:52;33.50;;;13.88;;
64351;SDS011;50680;52.626;-8.668;2024-03-23T07:16:22;23.15;;;13.70;;
64351;SDS011;50680;52.626;-8.668;2024-03-23T07:18:49;21.58;;;11.70;;
64351;SDS011;50680;52.626;-8.668;2024-03-23T07:21:15;15.75;;;10.77;;
64351;SDS011;50680;52.626;-8.668;2024-03-23T07:23:44;17.63;;;11.00;;
64351;SDS011;50680;52.626;-8.668;2024-03-23T07:26:10;15.07;;;11.38;;
64351;SDS011;50680;52.626;-8.668;2024-03-23T07:28:36;18.17;;;11.55;;
64351;SDS011;50680;52.626;-8.668;2024-03-23T07:33:28;16.90;;;11.95;;
64351;SDS011;50680;52.626;-8.668;2024-03-23T07:35:54;20.45;;;11.00;;
64351;SDS011;50680;52.626;-8.668;2024-03-23T07:38:20;20.90;;;10.88;;
64351;SDS011;50680;52.626;-8.668;2024-03-23T07:40:46;19.00;;;11.77;;
64351;SDS011;50680;52.626;-8.668;2024-03-23T07:43:11;21.15;;;12.38;;
64351;SDS011;50680;52.626;-8.668;2024-03-23T07:45:37;17.13;;;11.82;;
64351;SDS011;50680;52.626;-8.668;2024-03-23T07:48:03;21.63;;;12.02;;
64351;SDS011;50680;52.626;-8.668;2024-03-23T07:50:29;23.63;;;12.15;;
64351;SDS011;50680;52.626;-8.668;2024-03-23T07:52:55;24.33;;;13.02;;
64351;SDS011;50680;52.626;-8.668;2024-03-23T07:55:21;22.70;;;13.20;;
64351;SDS011;50680;52.626;-8.668;2024-03-23T07:57:47;21.33;;;13.50;;
64351;SDS011;50680;52.626;-8.668;2024-03-23T08:00:13;25.52;;;14.48;;
64351;SDS011;50680;52.626;-8.668;2024-03-23T08:02:39;34.25;;;13.40;;
64351;SDS011;50680;52.626;-8.668;2024-03-23T08:05:05;28.08;;;13.07;;
64351;SDS011;50680;52.626;-8.668;2024-03-23T08:07:31;31.75;;;13.88;;
64351;SDS011;50680;52.626;-8.668;2024-03-23T08:09:57;24.02;;;12.95;;
64351;SDS011;50680;52.626;-8.668;2024-03-23T08:12:24;28.23;;;13.70;;
64351;SDS011;50680;52.626;-8.668;2024-03-23T08:14:50;26.65;;;12.85;;
64351;SDS011;50680;52.626;-8.668;2024-03-23T08:17:16;29.52;;;14.10;;
64351;SDS011;50680;52.626;-8.668;2024-03-23T08:19:42;21.88;;;12.77;;
64351;SDS011;50680;52.626;-8.668;2024-03-23T08:22:07;29.40;;;13.60;;
64351;SDS011;50680;52.626;-8.668;2024-03-23T08:24:34;26.17;;;13.32;;
64351;SDS011;50680;52.626;-8.668;2024-03-23T08:27:00;29.58;;;13.68;;
64351;SDS011;50680;52.626;-8.668;2024-03-23T08:29:26;28.88;;;13.25;;
64351;SDS011;50680;52.626;-8.668;2024-03-23T08:31:51;28.40;;;13.63;;
64351;SDS011;50680;52.626;-8.668;2024-03-23T08:34:17;24.83;;;12.93;;
64351;SDS011;50680;52.626;-8.668;2024-03-23T08:36:43;29.25;;;13.43;;
64351;SDS011;50680;52.626;-8.668;2024-03-23T08:39:09;26.45;;;13.60;;
64351;SDS011;50680;52.626;-8.668;2024-03-23T08:41:34;33.28;;;13.90;;
64351;SDS011;50680;52.626;-8.668;2024-03-23T08:44:00;24.13;;;13.20;;
64351;SDS011;50680;52.626;-8.668;2024-03-23T08:46:26;23.42;;;13.13;;
64351;SDS011;50680;52.626;-8.668;2024-03-23T08:48:52;18.38;;;12.18;;
64351;SDS011;50680;52.626;-8.668;2024-03-23T08:51:18;23.80;;;12.57;;
64351;SDS011;50680;52.626;-8.668;2024-03-23T08:53:44;27.02;;;13.77;;
64351;SDS011;50680;52.626;-8.668;2024-03-23T08:56:11;18.45;;;13.30;;
64351;SDS011;50680;52.626;-8.668;2024-03-23T08:58:37;24.70;;;12.75;;
64351;SDS011;50680;52.626;-8.668;2024-03-23T09:01:08;24.38;;;13.07;;
64351;SDS011;50680;52.626;-8.668;2024-03-23T09:03:38;30.73;;;14.75;;
64351;SDS011;50680;52.626;-8.668;2024-03-23T09:06:12;25.65;;;14.35;;
64351;SDS011;50680;52.626;-8.668;2024-03-23T09:08:39;23.58;;;13.60;;
64351;SDS011;50680;52.626;-8.668;2024-03-23T09:11:06;21.02;;;14.10;;
64351;SDS011;50680;52.626;-8.668;2024-03-23T09:13:34;29.55;;;12.93;;
64351;SDS011;50680;52.626;-8.668;2024-03-23T09:16:01;18.63;;;13.52;;
64351;SDS011;50680;52.626;-8.668;2024-03-23T09:18:27;21.63;;;13.77;;
64351;SDS011;50680;52.626;-8.668;2024-03-23T09:20:53;20.88;;;13.98;;
64351;SDS011;50680;52.626;-8.668;2024-03-23T09:23:22;23.23;;;14.57;;
64351;SDS011;50680;52.626;-8.668;2024-03-23T09:25:48;22.30;;;13.60;;
64351;SDS011;50680;52.626;-8.668;2024-03-23T09:28:14;18.58;;;14.75;;
64351;SDS011;50680;52.626;-8.668;2024-03-23T09:30:40;20.60;;;15.05;;
64351;SDS011;50680;52.626;-8.668;2024-03-23T09:33:12;20.88;;;13.45;;
64351;SDS011;50680;52.626;-8.668;2024-03-23T09:35:38;21.77;;;14.25;;
64351;SDS011;50680;52.626;-8.668;2024-03-23T09:38:04;19.55;;;13.88;;
64351;SDS011;50680;52.626;-8.668;2024-03-23T09:40:31;20.67;;;14.70;;
64351;SDS011;50680;52.626;-8.668;2024-03-23T09:42:57;25.63;;;15.35;;
64351;SDS011;50680;52.626;-8.668;2024-03-23T09:45:31;28.38;;;15.02;;
64351;SDS011;50680;52.626;-8.668;2024-03-23T09:48:01;25.05;;;15.63;;
64351;SDS011;50680;52.626;-8.668;2024-03-23T09:50:27;25.55;;;15.25;;
64351;SDS011;50680;52.626;-8.668;2024-03-23T09:52:53;21.70;;;14.90;;
64351;SDS011;50680;52.626;-8.668;2024-03-23T09:55:18;28.60;;;15.15;;
64351;SDS011;50680;52.626;-8.668;2024-03-23T09:57:44;27.15;;;15.10;;
64351;SDS011;50680;52.626;-8.668;2024-03-23T10:00:10;29.20;;;16.00;;
64351;SDS011;50680;52.626;-8.668;2024-03-23T10:02:37;23.52;;;15.18;;
64351;SDS011;50680;52.626;-8.668;2024-03-23T10:05:03;23.08;;;14.50;;
64351;SDS011;50680;52.626;-8.668;2024-03-23T10:07:29;25.17;;;14.55;;
64351;SDS011;50680;52.626;-8.668;2024-03-23T10:09:55;22.25;;;14.32;;
64351;SDS011;50680;52.626;-8.668;2024-03-23T10:12:22;23.77;;;13.02;;
64351;SDS011;50680;52.626;-8.668;2024-03-23T10:14:49;20.13;;;14.40;;
64351;SDS011;50680;52.626;-8.668;2024-03-23T10:17:18;19.88;;;15.10;;
64351;SDS011;50680;52.626;-8.668;2024-03-23T10:19:49;16.27;;;14.53;;
64351;SDS011;50680;52.626;-8.668;2024-03-23T10:22:19;27.38;;;15.77;;
64351;SDS011;50680;52.626;-8.668;2024-03-23T10:24:46;21.50;;;15.88;;
64351;SDS011;50680;52.626;-8.668;2024-03-23T10:27:15;18.70;;;14.48;;
64351;SDS011;50680;52.626;-8.668;2024-03-23T10:29:43;15.85;;;14.25;;
64351;SDS011;50680;52.626;-8.668;2024-03-23T10:32:16;18.83;;;15.15;;
64351;SDS011;50680;52.626;-8.668;2024-03-23T10:34:43;18.45;;;14.57;;
64351;SDS011;50680;52.626;-8.668;2024-03-23T10:37:09;23.17;;;15.00;;
64351;SDS011;50680;52.626;-8.668;2024-03-23T10:39:36;16.98;;;14.05;;
64351;SDS011;50680;52.626;-8.668;2024-03-23T10:42:06;17.75;;;14.65;;
64351;SDS011;50680;52.626;-8.668;2024-03-23T10:44:34;17.20;;;14.48;;
64351;SDS011;50680;52.626;-8.668;2024-03-23T10:47:01;16.50;;;14.80;;
64351;SDS011;50680;52.626;-8.668;2024-03-23T10:49:34;21.58;;;15.13;;
64351;SDS011;50680;52.626;-8.668;2024-03-23T10:52:04;19.48;;;15.23;;
64351;SDS011;50680;52.626;-8.668;2024-03-23T10:54:31;17.33;;;14.27;;
64351;SDS011;50680;52.626;-8.668;2024-03-23T10:59:38;19.20;;;14.52;;
64351;SDS011;50680;52.626;-8.668;2024-03-23T11:02:05;18.80;;;14.70;;
64351;SDS011;50680;52.626;-8.668;2024-03-23T11:04:34;15.93;;;14.20;;
64351;SDS011;50680;52.626;-8.668;2024-03-23T11:07:01;14.85;;;13.55;;
64351;SDS011;50680;52.626;-8.668;2024-03-23T11:12:45;15.80;;;14.45;;
64351;SDS011;50680;52.626;-8.668;2024-03-23T11:17:29;18.58;;;13.77;;
64351;SDS011;50680;52.626;-8.668;2024-03-23T11:25:20;17.40;;;14.68;;
64351;SDS011;50680;52.626;-8.668;2024-03-23T11:27:48;25.55;;;15.45;;
64351;SDS011;50680;52.626;-8.668;2024-03-23T11:30:16;21.98;;;13.93;;
64351;SDS011;50680;52.626;-8.668;2024-03-23T11:32:47;22.58;;;15.43;;
64351;SDS011;50680;52.626;-8.668;2024-03-23T11:38:02;23.30;;;16.15;;
64351;SDS011;50680;52.626;-8.668;2024-03-23T11:40:38;20.95;;;14.77;;
64351;SDS011;50680;52.626;-8.668;2024-03-23T11:43:09;24.95;;;15.40;;
64351;SDS011;50680;52.626;-8.668;2024-03-23T11:45:42;21.75;;;16.27;;
64351;SDS011;50680;52.626;-8.668;2024-03-23T11:50:37;17.13;;;14.48;;
64351;SDS011;50680;52.626;-8.668;2024-03-23T11:53:16;21.77;;;14.35;;
64351;SDS011;50680;52.626;-8.668;2024-03-23T11:58:15;19.27;;;14.18;;
64351;SDS011;50680;52.626;-8.668;2024-03-23T12:00:42;14.88;;;13.30;;
64351;SDS011;50680;52.626;-8.668;2024-03-23T12:03:16;15.35;;;13.93;;
64351;SDS011;50680;52.626;-8.668;2024-03-23T12:05:42;15.07;;;11.52;;
64351;SDS011;50680;52.626;-8.668;2024-03-23T12:08:23;21.60;;;9.43;;
64351;SDS011;50680;52.626;-8.668;2024-03-23T12:10:53;14.85;;;8.77;;
64351;SDS011;50680;52.626;-8.668;2024-03-23T12:13:37;13.73;;;8.75;;
64351;SDS011;50680;52.626;-8.668;2024-03-23T12:16:10;16.27;;;9.27;;
64351;SDS011;50680;52.626;-8.668;2024-03-23T12:18:43;20.92;;;10.15;;
64351;SDS011;50680;52.626;-8.668;2024-03-23T12:21:10;14.40;;;10.20;;
64351;SDS011;50680;52.626;-8.668;2024-03-23T12:23:38;22.63;;;10.63;;
64351;SDS011;50680;52.626;-8.668;2024-03-23T12:26:05;21.73;;;9.10;;
64351;SDS011;50680;52.626;-8.668;2024-03-23T12:28:31;21.67;;;10.10;;
64351;SDS011;50680;52.626;-8.668;2024-03-23T12:30:58;20.23;;;10.65;;
64351;SDS011;50680;52.626;-8.668;2024-03-23T12:33:24;25.40;;;9.50;;
64351;SDS011;50680;52.626;-8.668;2024-03-23T12:35:50;19.15;;;10.50;;
64351;SDS011;50680;52.626;-8.668;2024-03-23T12:38:16;19.08;;;10.27;;
64351;SDS011;50680;52.626;-8.668;2024-03-23T12:40:51;24.10;;;11.13;;
64351;SDS011;50680;52.626;-8.668;2024-03-23T12:43:17;22.17;;;10.30;;
64351;SDS011;50680;52.626;-8.668;2024-03-23T12:45:46;21.30;;;11.10;;
64351;SDS011;50680;52.626;-8.668;2024-03-23T12:48:13;23.10;;;11.10;;
64351;SDS011;50680;52.626;-8.668;2024-03-23T12:50:38;17.95;;;10.73;;
64351;SDS011;50680;52.626;-8.668;2024-03-23T12:53:04;18.73;;;10.82;;
64351;SDS011;50680;52.626;-8.668;2024-03-23T12:55:30;24.25;;;11.15;;
64351;SDS011;50680;52.626;-8.668;2024-03-23T12:57:56;22.70;;;9.70;;
64351;SDS011;50680;52.626;-8.668;2024-03-23T13:00:22;20.83;;;10.23;;
64351;SDS011;50680;52.626;-8.668;2024-03-23T13:02:47;18.02;;;10.05;;
64351;SDS011;50680;52.626;-8.668;2024-03-23T13:05:13;19.75;;;10.27;;
64351;SDS011;50680;52.626;-8.668;2024-03-23T13:07:39;22.17;;;9.43;;
64351;SDS011;50680;52.626;-8.668;2024-03-23T13:10:05;15.25;;;9.40;;
64351;SDS011;50680;52.626;-8.668;2024-03-23T13:12:31;20.98;;;9.70;;
64351;SDS011;50680;52.626;-8.668;2024-03-23T13:14:58;17.45;;;10.02;;
64351;SDS011;50680;52.626;-8.668;2024-03-23T13:17:25;18.33;;;10.00;;
64351;SDS011;50680;52.626;-8.668;2024-03-23T13:19:52;17.52;;;9.57;;
64351;SDS011;50680;52.626;-8.668;2024-03-23T13:22:19;17.65;;;9.88;;
64351;SDS011;50680;52.626;-8.668;2024-03-23T13:24:44;20.80;;;10.60;;
64351;SDS011;50680;52.626;-8.668;2024-03-23T13:27:10;23.35;;;10.35;;
64351;SDS011;50680;52.626;-8.668;2024-03-23T13:29:36;13.23;;;9.40;;
64351;SDS011;50680;52.626;-8.668;2024-03-23T13:32:05;9.77;;;8.77;;
64351;SDS011;50680;52.626;-8.668;2024-03-23T13:34:32;9.82;;;8.52;;
64351;SDS011;50680;52.626;-8.668;2024-03-23T13:37:01;17.17;;;10.52;;
64351;SDS011;50680;52.626;-8.668;2024-03-23T13:39:27;13.00;;;11.27;;
64351;SDS011;50680;52.626;-8.668;2024-03-23T13:41:53;13.60;;;11.55;;
64351;SDS011;50680;52.626;-8.668;2024-03-23T13:44:20;12.88;;;10.35;;
64351;SDS011;50680;52.626;-8.668;2024-03-23T13:46:45;17.35;;;12.60;;
64351;SDS011;50680;52.626;-8.668;2024-03-23T13:49:45;14.15;;;12.85;;
64351;SDS011;50680;52.626;-8.668;2024-03-23T13:52:05;12.20;;;11.23;;
64351;SDS011;50680;52.626;-8.668;2024-03-23T13:54:32;14.68;;;10.52;;
64351;SDS011;50680;52.626;-8.668;2024-03-23T13:56:58;14.55;;;9.98;;
64351;SDS011;50680;52.626;-8.668;2024-03-23T13:59:23;12.38;;;9.45;;
64351;SDS011;50680;52.626;-8.668;2024-03-23T14:01:50;18.15;;;10.13;;
64351;SDS011;50680;52.626;-8.668;2024-03-23T14:04:16;15.52;;;9.88;;
64351;SDS011;50680;52.626;-8.668;2024-03-23T14:06:42;11.98;;;8.90;;
64351;SDS011;50680;52.626;-8.668;2024-03-23T14:09:10;16.40;;;10.02;;
64351;SDS011;50680;52.626;-8.668;2024-03-23T14:11:37;20.23;;;9.88;;
64351;SDS011;50680;52.626;-8.668;2024-03-23T14:14:03;23.52;;;9.30;;
64351;SDS011;50680;52.626;-8.668;2024-03-23T14:16:32;22.27;;;10.32;;
64351;SDS011;50680;52.626;-8.668;2024-03-23T14:18:58;17.83;;;9.68;;
64351;SDS011;50680;52.626;-8.668;2024-03-23T14:21:25;19.23;;;10.23;;
64351;SDS011;50680;52.626;-8.668;2024-03-23T14:23:51;17.63;;;9.90;;
64351;SDS011;50680;52.626;-8.668;2024-03-23T14:26:17;20.67;;;10.40;;
64351;SDS011;50680;52.626;-8.668;2024-03-23T14:28:42;16.88;;;9.07;;
64351;SDS011;50680;52.626;-8.668;2024-03-23T14:31:08;18.33;;;10.10;;
64351;SDS011;50680;52.626;-8.668;2024-03-23T14:33:39;17.50;;;10.13;;
64351;SDS011;50680;52.626;-8.668;2024-03-23T14:36:14;14.32;;;9.50;;
64351;SDS011;50680;52.626;-8.668;2024-03-23T14:38:41;12.00;;;9.43;;
64351;SDS011;50680;52.626;-8.668;2024-03-23T14:41:07;17.05;;;9.50;;
64351;SDS011;50680;52.626;-8.668;2024-03-23T14:43:33;18.75;;;9.70;;
64351;SDS011;50680;52.626;-8.668;2024-03-23T14:46:12;18.83;;;9.82;;
64351;SDS011;50680;52.626;-8.668;2024-03-23T14:48:42;14.25;;;9.63;;
64351;SDS011;50680;52.626;-8.668;2024-03-23T14:51:09;16.98;;;9.95;;
64351;SDS011;50680;52.626;-8.668;2024-03-23T14:53:39;16.55;;;9.77;;
64351;SDS011;50680;52.626;-8.668;2024-03-23T14:56:07;17.77;;;11.07;;
64351;SDS011;50680;52.626;-8.668;2024-03-23T14:58:34;22.40;;;11.13;;
64351;SDS011;50680;52.626;-8.668;2024-03-23T15:01:03;20.10;;;10.60;;
64351;SDS011;50680;52.626;-8.668;2024-03-23T15:03:30;21.92;;;10.82;;
64351;SDS011;50680;52.626;-8.668;2024-03-23T15:05:56;24.70;;;10.57;;
64351;SDS011;50680;52.626;-8.668;2024-03-23T15:08:23;22.05;;;11.35;;
64351;SDS011;50680;52.626;-8.668;2024-03-23T15:10:49;18.25;;;10.32;;
64351;SDS011;50680;52.626;-8.668;2024-03-23T15:13:16;19.15;;;10.30;;
64351;SDS011;50680;52.626;-8.668;2024-03-23T15:15:42;15.13;;;10.95;;
64351;SDS011;50680;52.626;-8.668;2024-03-23T15:18:14;22.02;;;10.75;;
64351;SDS011;50680;52.626;-8.668;2024-03-23T15:20:41;26.92;;;10.98;;
64351;SDS011;50680;52.626;-8.668;2024-03-23T15:23:16;20.75;;;11.07;;
64351;SDS011;50680;52.626;-8.668;2024-03-23T15:25:42;19.10;;;11.93;;
64351;SDS011;50680;52.626;-8.668;2024-03-23T15:28:08;19.05;;;10.63;;